Main page
METAR-TAF:

METAR-TAF

Airports :

Bordeaux, France

Bordeaux–Mérignac Airport

latitude: 44-50N, longitude: 000-42W, elevation: 49 m

Current weather observation

The report was made 36 minutes ago, at 21:00 UTC
Calm wind
Temperature 1°C
Humidity 86%
Pressure 1022 hPa
Visibility 10 km or more
no clouds below 1500 m and no cumulonimbus

METAR: LFBD 212100Z AUTO 00000KT CAVOK 01/M01 Q1022 NOSIG

Time: 22:36 (21:36 UTC)

Forecast

The report was made 4 hours and 36 minutes ago, at 17:00 UTC
Forecast valid from 21 at 18 UTC to 22 at 24 UTC
Wind 5 kt from the East
Visibility 10 km or more
no clouds below 1500 m and no cumulonimbus
Probability 30% :
Temporary
from 22 at 05 UTC to 22 at 08 UTC
Visibility: 4000 m
mist

TAF: LFBD 211700Z 2118/2224 09005KT CAVOK PROB30 TEMPO 2205/2208 4000 BR NSC TX08/2215Z TNM01/2204Z

Weather observations and forecasts of more than 4000 airports (METAR and TAF reports).

The available stations are represented by yellow and red dots on the map.

Hover mouse over dot to see the name of the station.

Then click to see weather observations and forecasts.

To change the map : click on the green buttons with a black cross to zoom in, on the green button with a dash to zoom out, or on the green arrows for adjacent maps.


METAR-TAF: